Neptune Avra — 9HKH6 — position and weather

sailwx.info

Track history (hours):
 
Tides and Currents Weather Stations Pressure Air Temp Water Temp Dewpoint Dewpoint Depression Visibility Wind Speed Wind Dir Waves Ship Positions

Neptune Avra

Last reported at 2016-Dec-09 23:09 UTC. Time now 2016-Dec-10 16:43 UTC.
Position N 37°43' E 024°15'.

Length 155 m; draft 6.3 m.

Type: Cargo ship. MMSI: 248598000.

Date/timePositionNaut miles runAvg speedWind from/ knotsBaromVisibWave heightAir tempDewpointWater temp
2016-Dec-09 23:09N 37°43' E 024°15'915.3
2016-Dec-09 22:33N 37°49' E 024°24'  
2016-Dec-03 19:22N 37°56' E 024°36'1716.2
2016-Dec-03 18:19N 37°45' E 024°20'1315.4
2016-Dec-03 17:29N 37°34' E 024°10'45615.0
2016-Dec-02 11:07N 36°37' E 014°43'916.5
2016-Dec-02 10:33N 36°40' E 014°32'1616.1
2016-Dec-02 09:33N 36°47' E 014°14'1616.0
2016-Dec-02 08:33N 36°54' E 013°56'1616.1
2016-Dec-02 07:33N 36°59' E 013°37'52315.8
2016-Nov-30 22:33N 40°44' E 003°30'1616.0
2016-Nov-30 21:33N 40°52' E 003°12'1615.7
2016-Nov-30 20:33N 40°59' E 002°54'1615.9
2016-Nov-30 19:33N 41°06' E 002°35'  
Track history (hours):
 
Tides and Currents Weather Stations Pressure Air Temp Water Temp Dewpoint Dewpoint Depression Visibility Wind Speed Wind Dir Waves Ship Positions

Neptune Avra

Last reported at 2016-Dec-09 23:09 UTC. Time now 2016-Dec-10 16:43 UTC.
Position N 37°43' E 024°15'.

Length 155 m; draft 6.3 m.

Type: Cargo ship. MMSI: 248598000.

Date/timePositionNaut miles runAvg speedWind from/ knotsBaromVisibWave heightAir tempDewpointWater temp
2016-Dec-09 23:09N 37°43' E 024°15'915.3
2016-Dec-09 22:33N 37°49' E 024°24'  
2016-Dec-03 19:22N 37°56' E 024°36'1716.2
2016-Dec-03 18:19N 37°45' E 024°20'1315.4
2016-Dec-03 17:29N 37°34' E 024°10'45615.0
2016-Dec-02 11:07N 36°37' E 014°43'916.5
2016-Dec-02 10:33N 36°40' E 014°32'1616.1
2016-Dec-02 09:33N 36°47' E 014°14'1616.0
2016-Dec-02 08:33N 36°54' E 013°56'1616.1
2016-Dec-02 07:33N 36°59' E 013°37'52315.8
2016-Nov-30 22:33N 40°44' E 003°30'1616.0
2016-Nov-30 21:33N 40°52' E 003°12'1615.7
2016-Nov-30 20:33N 40°59' E 002°54'1615.9
2016-Nov-30 19:33N 41°06' E 002°35'  

Dump ship's entire track history